Time,TemperatureF,DewpointF,PressureIn,WindDirection,WindDirectionDegrees,WindSpeedMPH,WindSpeedGustMPH,Humidity,HourlyPrecipIn,Conditions,Clouds,dailyrainin,SoftwareType,DateUTC
2013-01-17 00:00:00,18.5,11.3,29.99,NNW,348,7.0,8.0,73,0.00,,OVC040,0.00,VWS V14.01,2013-01-17 05:00:00,
2013-01-17 00:02:00,18.4,11.5,29.99,North,357,5.0,11.0,74,0.00,,OVC055,0.00,VWS V14.01,2013-01-17 05:02:00,
2013-01-17 00:03:00,18.4,11.5,29.99,NNW,338,9.0,13.0,74,0.00,,OVC055,0.00,VWS V14.01,2013-01-17 05:03:00,
2013-01-17 00:08:00,18.2,11.6,30.00,NE,49,9.0,13.0,75,0.00,,OVC055,0.00,VWS V14.01,2013-01-17 05:08:00,
2013-01-17 00:13:00,18.0,11.7,30.00,North,2,7.0,8.0,76,0.00,,OVC055,0.00,VWS V14.01,2013-01-17 05:13:00,
2013-01-17 00:18:00,17.9,11.6,30.01,NNE,17,6.0,12.0,76,0.00,,OVC055,0.00,VWS V14.01,2013-01-17 05:18:00,
2013-01-17 00:23:00,17.8,11.2,30.01,NNE,14,7.0,11.0,75,0.00,,OVC055,0.00,VWS V14.01,2013-01-17 05:23:00,
2013-01-17 00:28:00,17.7,11.1,30.01,NNW,347,7.0,12.0,75,0.00,,OVC055,0.00,VWS V14.01,2013-01-17 05:28:00,
2013-01-17 00:33:00,17.6,11.0,30.02,NNE,15,15.0,17.0,75,0.00,,OVC055,0.00,VWS V14.01,2013-01-17 05:33:00,
2013-01-17 00:38:00,17.5,10.6,30.02,North,357,8.0,9.0,74,0.00,,OVC055,0.00,VWS V14.01,2013-01-17 05:38:00,
2013-01-17 00:43:00,17.4,10.6,30.03,North,7,8.0,12.0,74,0.00,,OVC055,0.00,VWS V14.01,2013-01-17 05:43:00,
2013-01-17 00:48:00,17.3,10.8,30.03,North,357,7.0,9.0,75,0.00,,OVC055,0.00,VWS V14.01,2013-01-17 05:48:00,
2013-01-17 00:53:00,17.2,10.4,30.03,North,7,11.0,14.0,74,0.00,,OVC055,0.00,VWS V14.01,2013-01-17 05:53:00,
2013-01-17 00:59:00,17.1,10.3,30.04,North,7,7.0,11.0,74,0.00,,OVC055,0.00,VWS V14.01,2013-01-17 05:59:00,
2013-01-17 01:03:00,17.0,10.2,30.04,NE,36,9.0,14.0,74,0.00,,,0.00,VWS V14.01,2013-01-17 06:03:00,
2013-01-17 01:08:00,17.0,10.5,30.04,North,357,7.0,11.0,75,0.00,,,0.00,VWS V14.01,2013-01-17 06:08:00,
2013-01-17 01:13:00,16.7,9.9,30.04,North,349,8.0,10.0,74,0.00,,,0.00,VWS V14.01,2013-01-17 06:13:00,
2013-01-17 01:18:00,16.5,9.1,30.04,North,357,8.0,11.0,72,0.00,,,0.00,VWS V14.01,2013-01-17 06:18:00,
2013-01-17 01:23:00,16.3,9.2,30.05,NNE,21,7.0,10.0,73,0.00,,,0.00,VWS V14.01,2013-01-17 06:23:00,
2013-01-17 01:29:00,16.2,8.8,30.05,NNW,345,7.0,9.0,72,0.00,,,0.00,VWS V14.01,2013-01-17 06:29:00,
2013-01-17 01:33:00,16.1,9.0,30.05,NNE,18,6.0,10.0,73,0.00,,,0.00,VWS V14.01,2013-01-17 06:33:00,
2013-01-17 01:39:00,16.0,8.9,30.06,NW,321,9.0,9.0,73,0.00,,,0.00,VWS V14.01,2013-01-17 06:39:00,
2013-01-17 01:44:00,15.9,8.5,30.06,North,2,9.0,9.0,72,0.00,,,0.00,VWS V14.01,2013-01-17 06:44:00,
2013-01-17 01:48:00,15.7,8.0,30.06,NNW,335,10.0,10.0,71,0.00,,,0.00,VWS V14.01,2013-01-17 06:48:00,
2013-01-17 01:53:00,15.6,7.9,30.06,North,357,9.0,10.0,71,0.00,,,0.00,VWS V14.01,2013-01-17 06:53:00,
2013-01-17 01:59:00,15.5,8.4,30.07,NNE,23,4.0,8.0,73,0.00,,,0.00,VWS V14.01,2013-01-17 06:59:00,
2013-01-17 02:04:00,15.3,7.9,30.07,NNE,15,4.0,6.0,72,0.00,,OVC036,0.00,VWS V14.01,2013-01-17 07:04:00,
2013-01-17 02:09:00,15.0,7.3,30.07,North,7,6.0,6.0,71,0.00,,OVC036,0.00,VWS V14.01,2013-01-17 07:09:00,
2013-01-17 02:14:00,14.8,7.1,30.07,NNE,25,6.0,9.0,71,0.00,,OVC036,0.00,VWS V14.01,2013-01-17 07:14:00,
2013-01-17 02:19:00,14.7,7.3,30.08,North,357,11.0,14.0,72,0.00,,OVC036,0.00,VWS V14.01,2013-01-17 07:19:00,
2013-01-17 02:24:00,14.5,7.1,30.08,NNE,19,3.0,7.0,72,0.00,,OVC036,0.00,VWS V14.01,2013-01-17 07:24:00,
2013-01-17 02:29:00,14.4,6.7,30.09,NNW,327,8.0,10.0,71,0.00,,OVC036,0.00,VWS V14.01,2013-01-17 07:29:00,
2013-01-17 02:34:00,14.2,6.5,30.09,North,7,5.0,8.0,71,0.00,,OVC060,0.00,VWS V14.01,2013-01-17 07:34:00,
2013-01-17 02:39:00,14.1,6.4,30.10,North,357,9.0,10.0,71,0.00,,OVC060,0.00,VWS V14.01,2013-01-17 07:39:00,
2013-01-17 02:44:00,14.0,6.3,30.10,North,351,4.0,7.0,71,0.00,,OVC060,0.00,VWS V14.01,2013-01-17 07:44:00,
2013-01-17 02:49:00,13.9,6.6,30.11,NNE,14,4.0,7.0,72,0.00,,OVC060,0.00,VWS V14.01,2013-01-17 07:49:00,
2013-01-17 02:54:00,14.0,6.7,30.11,NNE,24,8.0,8.0,72,0.00,,OVC060,0.00,VWS V14.01,2013-01-17 07:54:00,
2013-01-17 02:59:00,14.0,6.7,30.12,NNE,31,7.0,9.0,72,0.00,,OVC060,0.00,VWS V14.01,2013-01-17 07:59:00,
2013-01-17 03:04:00,14.1,6.8,30.12,NE,34,12.0,13.0,72,0.00,,OVC055,0.00,VWS V14.01,2013-01-17 08:04:00,
2013-01-17 03:09:00,14.0,7.0,30.13,North,11,9.0,11.0,73,0.00,,OVC055,0.00,VWS V14.01,2013-01-17 08:09:00,
2013-01-17 03:14:00,14.0,7.0,30.13,North,2,5.0,6.0,73,0.00,,OVC055,0.00,VWS V14.01,2013-01-17 08:14:00,
2013-01-17 03:19:00,14.0,7.2,30.13,NNE,20,8.0,13.0,74,0.00,,OVC055,0.00,VWS V14.01,2013-01-17 08:19:00,
2013-01-17 03:24:00,14.0,7.0,30.14,North,7,8.0,13.0,73,0.00,,OVC055,0.00,VWS V14.01,2013-01-17 08:24:00,
2013-01-17 03:29:00,13.9,6.9,30.14,North,357,3.0,6.0,73,0.00,,OVC055,0.00,VWS V14.01,2013-01-17 08:29:00,
2013-01-17 03:34:00,13.9,6.9,30.14,NNE,14,10.0,10.0,73,0.00,,OVC055,0.00,VWS V14.01,2013-01-17 08:34:00,
2013-01-17 03:39:00,13.9,7.2,30.14,North,350,3.0,6.0,74,0.00,,OVC055,0.00,VWS V14.01,2013-01-17 08:39:00,
2013-01-17 03:44:00,13.9,7.2,30.14,North,7,6.0,8.0,74,0.00,,OVC055,0.00,VWS V14.01,2013-01-17 08:44:00,
2013-01-17 03:49:00,13.9,7.4,30.13,NNW,348,7.0,9.0,75,0.00,,OVC055,0.00,VWS V14.01,2013-01-17 08:49:00,
2013-01-17 03:54:00,13.8,7.1,30.13,NNW,347,13.0,14.0,74,0.00,,OVC055,0.00,VWS V14.01,2013-01-17 08:54:00,
2013-01-17 03:59:00,13.7,7.0,30.13,North,7,7.0,9.0,74,0.00,,OVC055,0.00,VWS V14.01,2013-01-17 08:59:00,
2013-01-17 04:04:00,13.7,7.0,30.13,NNE,24,5.0,6.0,74,0.00,,,0.00,VWS V14.01,2013-01-17 09:04:00,
2013-01-17 04:09:00,13.6,6.9,30.13,NNE,18,5.0,7.0,74,0.00,,,0.00,VWS V14.01,2013-01-17 09:09:00,
2013-01-17 04:14:00,13.5,7.1,30.14,North,11,11.0,11.0,75,0.00,,,0.00,VWS V14.01,2013-01-17 09:14:00,
2013-01-17 04:19:00,13.5,7.1,30.14,NE,35,11.0,11.0,75,0.00,,,0.00,VWS V14.01,2013-01-17 09:19:00,
2013-01-17 04:24:00,13.5,7.4,30.14,North,2,11.0,11.0,76,0.00,,,0.00,VWS V14.01,2013-01-17 09:24:00,
2013-01-17 04:29:00,13.4,7.3,30.14,North,7,6.0,9.0,76,0.00,,,0.00,VWS V14.01,2013-01-17 09:29:00,
2013-01-17 04:34:00,13.4,7.0,30.14,NNW,335,7.0,12.0,75,0.00,,,0.00,VWS V14.01,2013-01-17 09:34:00,
2013-01-17 04:39:00,13.5,6.8,30.14,North,357,6.0,7.0,74,0.00,,,0.00,VWS V14.01,2013-01-17 09:39:00,
2013-01-17 04:44:00,13.5,6.8,30.14,NW,318,5.0,6.0,74,0.00,,,0.00,VWS V14.01,2013-01-17 09:44:00,
2013-01-17 04:49:00,13.5,6.8,30.14,North,350,7.0,7.0,74,0.00,,,0.00,VWS V14.01,2013-01-17 09:49:00,
2013-01-17 04:54:00,13.5,6.8,30.14,NNE,12,8.0,8.0,74,0.00,,,0.00,VWS V14.01,2013-01-17 09:54:00,
2013-01-17 04:59:00,13.4,6.4,30.14,NNW,347,5.0,10.0,73,0.00,,,0.00,VWS V14.01,2013-01-17 09:59:00,
2013-01-17 05:04:00,13.3,6.3,30.14,North,7,3.0,6.0,73,0.00,,OVC050,0.00,VWS V14.01,2013-01-17 10:04:00,
2013-01-17 05:09:00,13.3,6.0,30.14,NNE,25,5.0,13.0,72,0.00,,OVC050,0.00,VWS V14.01,2013-01-17 10:09:00,
2013-01-17 05:14:00,13.2,5.9,30.15,North,11,7.0,10.0,72,0.00,,OVC050,0.00,VWS V14.01,2013-01-17 10:14:00,
2013-01-17 05:19:00,13.2,5.9,30.15,North,357,10.0,11.0,72,0.00,,OVC050,0.00,VWS V14.01,2013-01-17 10:19:00,
2013-01-17 05:24:00,13.3,6.3,30.15,North,357,10.0,10.0,73,0.00,,OVC050,0.00,VWS V14.01,2013-01-17 10:24:00,
2013-01-17 05:29:00,13.3,6.3,30.15,NW,323,7.0,8.0,73,0.00,,OVC050,0.00,VWS V14.01,2013-01-17 10:29:00,
2013-01-17 05:34:00,13.3,6.0,30.15,NNW,327,7.0,7.0,72,0.00,,OVC050,0.00,VWS V14.01,2013-01-17 10:34:00,
2013-01-17 05:39:00,13.3,6.0,30.16,NNW,333,3.0,5.0,72,0.00,,OVC050,0.00,VWS V14.01,2013-01-17 10:39:00,
2013-01-17 05:44:00,13.3,6.0,30.16,North,357,5.0,6.0,72,0.00,,OVC050,0.00,VWS V14.01,2013-01-17 10:44:00,
2013-01-17 05:49:00,13.2,5.9,30.16,NNW,327,3.0,6.0,72,0.00,,OVC050,0.00,VWS V14.01,2013-01-17 10:49:00,
2013-01-17 05:54:00,13.2,5.9,30.16,NNE,31,6.0,9.0,72,0.00,,OVC050,0.00,VWS V14.01,2013-01-17 10:54:00,
2013-01-17 05:59:00,13.2,5.9,30.16,NNW,348,10.0,11.0,72,0.00,,OVC050,0.00,VWS V14.01,2013-01-17 10:59:00,
2013-01-17 06:04:00,13.1,6.1,30.16,North,2,6.0,7.0,73,0.00,,OVC031,0.00,VWS V14.01,2013-01-17 11:04:00,
2013-01-17 06:09:00,13.0,6.0,30.16,NNW,331,4.0,9.0,73,0.00,,OVC031,0.00,VWS V14.01,2013-01-17 11:09:00,
2013-01-17 06:14:00,12.8,6.1,30.17,North,353,3.0,4.0,74,0.00,,OVC031,0.00,VWS V14.01,2013-01-17 11:14:00,
2013-01-17 06:19:00,12.7,6.0,30.17,NNE,28,9.0,10.0,74,0.00,,OVC031,0.00,VWS V14.01,2013-01-17 11:19:00,
2013-01-17 06:24:00,12.5,6.1,30.17,NNE,18,4.0,6.0,75,0.00,,OVC031,0.00,VWS V14.01,2013-01-17 11:24:00,
2013-01-17 06:29:00,12.4,6.0,30.17,North,2,4.0,5.0,75,0.00,,OVC031,0.00,VWS V14.01,2013-01-17 11:29:00,
2013-01-17 06:34:00,12.3,5.9,30.17,NNE,25,3.0,3.0,75,0.00,,OVC031,0.00,VWS V14.01,2013-01-17 11:34:00,
2013-01-17 06:39:00,12.3,6.2,30.17,NNW,342,3.0,3.0,76,0.00,,OVC031,0.00,VWS V14.01,2013-01-17 11:39:00,
2013-01-17 06:44:00,12.2,6.1,30.17,North,357,2.0,2.0,76,0.00,,OVC031,0.00,VWS V14.01,2013-01-17 11:44:00,
2013-01-17 06:49:00,12.2,6.1,30.17,NNW,335,2.0,2.0,76,0.00,,OVC031,0.00,VWS V14.01,2013-01-17 11:49:00,
2013-01-17 06:54:00,12.2,6.1,30.17,North,7,5.0,5.0,76,0.00,,OVC031,0.00,VWS V14.01,2013-01-17 11:54:00,
2013-01-17 06:59:00,12.4,5.7,30.17,NNW,348,3.0,3.0,74,0.00,,OVC031,0.00,VWS V14.01,2013-01-17 11:59:00,
2013-01-17 07:04:00,12.5,5.8,30.18,NNW,348,3.0,7.0,74,0.00,,OVC029,0.00,VWS V14.01,2013-01-17 12:04:00,
2013-01-17 07:09:00,12.6,5.6,30.18,NNW,345,4.0,5.0,73,0.00,,OVC029,0.00,VWS V14.01,2013-01-17 12:09:00,
2013-01-17 07:14:00,12.7,5.7,30.18,NNW,346,6.0,11.0,73,0.00,,OVC029,0.00,VWS V14.01,2013-01-17 12:14:00,
2013-01-17 07:19:00,12.8,5.8,30.18,NW,314,2.0,3.0,73,0.00,,OVC029,0.00,VWS V14.01,2013-01-17 12:19:00,
2013-01-17 07:25:00,12.8,5.8,30.18,NNW,347,5.0,6.0,73,0.00,,OVC029,0.00,VWS V14.01,2013-01-17 12:25:00,
2013-01-17 07:30:00,12.8,5.5,30.19,NNW,328,2.0,4.0,72,0.00,,OVC029,0.00,VWS V14.01,2013-01-17 12:30:00,
2013-01-17 07:35:00,12.8,5.5,30.19,NNW,346,4.0,4.0,72,0.00,,OVC029,0.00,VWS V14.01,2013-01-17 12:35:00,
2013-01-17 07:40:00,12.8,5.2,30.19,NW,317,3.0,4.0,71,0.00,,OVC029,0.00,VWS V14.01,2013-01-17 12:40:00,
2013-01-17 07:45:00,12.8,5.2,30.19,North,7,3.0,6.0,71,0.00,,OVC029,0.00,VWS V14.01,2013-01-17 12:45:00,
2013-01-17 07:50:00,12.8,4.9,30.19,NNW,334,3.0,7.0,70,0.00,,OVC029,0.00,VWS V14.01,2013-01-17 12:50:00,
2013-01-17 07:55:00,12.8,4.9,30.19,NW,321,5.0,6.0,70,0.00,,OVC029,0.00,VWS V14.01,2013-01-17 12:55:00,
2013-01-17 08:00:00,12.8,4.9,30.19,NNW,332,11.0,11.0,70,0.00,,OVC029,0.00,VWS V14.01,2013-01-17 13:00:00,
2013-01-17 08:05:00,12.9,5.0,30.20,NW,315,0.0,2.0,70,0.00,,,0.00,VWS V14.01,2013-01-17 13:05:00,
2013-01-17 08:10:00,12.8,4.9,30.20,NNW,340,3.0,5.0,70,0.00,,,0.00,VWS V14.01,2013-01-17 13:10:00,
2013-01-17 08:15:00,12.8,4.6,30.21,NW,319,3.0,5.0,69,0.00,,,0.00,VWS V14.01,2013-01-17 13:15:00,
2013-01-17 08:20:00,12.9,4.3,30.20,NNW,341,5.0,5.0,68,0.00,,,0.00,VWS V14.01,2013-01-17 13:20:00,
2013-01-17 08:25:00,12.9,4.0,30.21,NNW,331,4.0,5.0,67,0.00,,,0.00,VWS V14.01,2013-01-17 13:25:00,
2013-01-17 08:30:00,12.9,3.7,30.21,NW,323,2.0,6.0,66,0.00,,,0.00,VWS V14.01,2013-01-17 13:30:00,
2013-01-17 08:35:00,12.9,3.7,30.21,NW,305,2.0,4.0,66,0.00,,,0.00,VWS V14.01,2013-01-17 13:35:00,
2013-01-17 08:40:00,13.0,4.1,30.21,WNW,286,1.0,4.0,67,0.00,,,0.00,VWS V14.01,2013-01-17 13:40:00,
2013-01-17 08:45:00,13.0,4.1,30.22,NW,318,5.0,6.0,67,0.00,,,0.00,VWS V14.01,2013-01-17 13:45:00,
2013-01-17 08:50:00,13.1,4.2,30.22,NNW,329,5.0,6.0,67,0.00,,,0.00,VWS V14.01,2013-01-17 13:50:00,
2013-01-17 08:55:00,13.2,4.3,30.22,WNW,301,3.0,3.0,67,0.00,,,0.00,VWS V14.01,2013-01-17 13:55:00,
2013-01-17 09:00:00,13.5,4.6,30.23,NW,326,3.0,5.0,67,0.00,,,0.00,VWS V14.01,2013-01-17 14:00:00,
2013-01-17 09:05:00,13.7,4.8,30.23,NW,326,2.0,6.0,67,0.00,,OVC036,0.00,VWS V14.01,2013-01-17 14:05:00,
2013-01-17 09:10:00,14.0,4.8,30.23,WNW,290,5.0,8.0,66,0.00,,OVC036,0.00,VWS V14.01,2013-01-17 14:10:00,
2013-01-17 09:15:00,14.1,4.8,30.23,NW,315,5.0,7.0,66,0.00,,OVC036,0.00,VWS V14.01,2013-01-17 14:15:00,
2013-01-17 09:20:00,14.0,4.8,30.23,NW,306,7.0,7.0,66,0.00,,OVC036,0.00,VWS V14.01,2013-01-17 14:20:00,
2013-01-17 09:25:00,13.8,4.6,30.24,NW,323,5.0,5.0,66,0.00,,OVC036,0.00,VWS V14.01,2013-01-17 14:25:00,
2013-01-17 09:30:00,13.8,4.6,30.24,NW,321,3.0,5.0,66,0.00,,OVC036,0.00,VWS V14.01,2013-01-17 14:30:00,
2013-01-17 09:35:00,14.0,5.1,30.24,WNW,290,3.0,7.0,67,0.00,,OVC036,0.00,VWS V14.01,2013-01-17 14:35:00,
2013-01-17 09:40:00,14.2,4.9,30.24,NW,307,3.0,4.0,66,0.00,,OVC036,0.00,VWS V14.01,2013-01-17 14:40:00,
2013-01-17 09:45:00,14.4,5.1,30.24,WNW,296,4.0,5.0,66,0.00,,OVC036,0.00,VWS V14.01,2013-01-17 14:45:00,
2013-01-17 09:50:00,14.4,5.1,30.24,NNW,331,3.0,4.0,66,0.00,,OVC036,0.00,VWS V14.01,2013-01-17 14:50:00,
2013-01-17 09:55:00,14.5,5.6,30.24,NNW,330,3.0,5.0,67,0.00,,OVC036,0.00,VWS V14.01,2013-01-17 14:55:00,
2013-01-17 10:00:00,14.6,5.3,30.24,NW,321,4.0,7.0,66,0.00,,OVC036,0.00,VWS V14.01,2013-01-17 15:00:00,
2013-01-17 10:05:00,14.7,5.8,30.24,North,357,2.0,6.0,67,0.00,,OVC075,0.00,VWS V14.01,2013-01-17 15:05:00,
2013-01-17 10:10:00,14.6,5.7,30.24,NNE,17,6.0,9.0,67,0.00,,OVC075,0.00,VWS V14.01,2013-01-17 15:10:00,
2013-01-17 10:15:00,14.6,5.7,30.24,NNW,330,8.0,9.0,67,0.00,,OVC075,0.00,VWS V14.01,2013-01-17 15:15:00,
2013-01-17 10:20:00,14.4,5.8,30.24,NNW,328,7.0,10.0,68,0.00,,OVC075,0.00,VWS V14.01,2013-01-17 15:20:00,
2013-01-17 10:25:00,14.3,6.0,30.24,WNW,296,2.0,6.0,69,0.00,,OVC075,0.00,VWS V14.01,2013-01-17 15:25:00,
2013-01-17 10:31:00,14.2,6.2,30.24,NNW,332,4.0,7.0,70,0.00,,OVC075,0.00,VWS V14.01,2013-01-17 15:31:00,
2013-01-17 10:36:00,14.3,6.3,30.24,NW,309,2.0,4.0,70,0.00,,OVC075,0.00,VWS V14.01,2013-01-17 15:36:00,
2013-01-17 10:41:00,14.3,6.0,30.24,NNW,339,4.0,5.0,69,0.00,,OVC075,0.00,VWS V14.01,2013-01-17 15:41:00,
2013-01-17 10:46:00,14.5,6.5,30.24,NW,309,5.0,8.0,70,0.00,,OVC075,0.00,VWS V14.01,2013-01-17 15:46:00,
2013-01-17 10:51:00,14.3,6.6,30.24,NNW,345,3.0,4.0,71,0.00,,OVC075,0.00,VWS V14.01,2013-01-17 15:51:00,
2013-01-17 10:56:00,14.5,6.5,30.24,WNW,303,4.0,5.0,70,0.00,,OVC075,0.00,VWS V14.01,2013-01-17 15:56:00,
2013-01-17 11:01:00,14.8,6.8,30.24,North,352,5.0,7.0,70,0.00,,OVC075,0.00,VWS V14.01,2013-01-17 16:01:00,
2013-01-17 11:06:00,15.0,7.0,30.24,WNW,287,4.0,5.0,70,0.00,,,0.00,VWS V14.01,2013-01-17 16:06:00,
2013-01-17 11:11:00,14.9,6.9,30.24,North,357,7.0,10.0,70,0.00,,,0.00,VWS V14.01,2013-01-17 16:11:00,
2013-01-17 11:16:00,14.5,8.3,30.24,WSW,252,5.0,6.0,76,0.00,,,0.00,VWS V14.01,2013-01-17 16:16:00,
2013-01-17 11:21:00,14.0,9.3,30.24,WNW,291,7.0,9.0,81,0.00,,,0.00,VWS V14.01,2013-01-17 16:21:00,
2013-01-17 11:26:00,13.9,9.7,30.24,NNW,335,3.0,6.0,83,0.00,,,0.00,VWS V14.01,2013-01-17 16:26:00,
2013-01-17 11:31:00,13.8,9.3,30.23,NW,321,3.0,5.0,82,0.00,,,0.00,VWS V14.01,2013-01-17 16:31:00,
2013-01-17 11:36:00,14.1,9.4,30.23,WNW,283,2.0,4.0,81,0.00,,,0.00,VWS V14.01,2013-01-17 16:36:00,
2013-01-17 11:41:00,14.5,8.9,30.23,WNW,299,2.0,2.0,78,0.00,,,0.00,VWS V14.01,2013-01-17 16:41:00,
2013-01-17 11:46:00,15.3,9.4,30.22,NNW,346,4.0,5.0,77,0.00,,,0.00,VWS V14.01,2013-01-17 16:46:00,
2013-01-17 11:51:00,15.6,9.4,30.22,NNW,342,6.0,6.0,76,0.00,,,0.00,VWS V14.01,2013-01-17 16:51:00,
2013-01-17 11:56:00,15.4,9.5,30.22,NW,312,10.0,10.0,77,0.00,,,0.00,VWS V14.01,2013-01-17 16:56:00,
2013-01-17 12:01:00,15.2,9.6,30.22,West,279,1.0,6.0,78,0.00,,,0.00,VWS V14.01,2013-01-17 17:01:00,
2013-01-17 12:06:00,15.5,8.4,30.22,NW,308,3.0,5.0,73,0.00,,OVC070,0.00,VWS V14.01,2013-01-17 17:06:00,
2013-01-17 12:11:00,15.6,7.3,30.22,West,270,6.0,9.0,69,0.00,,OVC070,0.00,VWS V14.01,2013-01-17 17:11:00,
2013-01-17 12:16:00,16.0,8.6,30.22,NW,309,9.0,11.0,72,0.00,,OVC070,0.00,VWS V14.01,2013-01-17 17:16:00,
2013-01-17 12:21:00,15.6,8.5,30.22,WNW,300,10.0,12.0,73,0.00,,OVC070,0.00,VWS V14.01,2013-01-17 17:21:00,
2013-01-17 12:26:00,15.8,8.7,30.22,WNW,291,5.0,12.0,73,0.00,,OVC070,0.00,VWS V14.01,2013-01-17 17:26:00,
2013-01-17 12:31:00,15.2,8.4,30.22,West,272,4.0,12.0,74,0.00,,OVC070,0.00,VWS V14.01,2013-01-17 17:31:00,
2013-01-17 12:36:00,15.1,7.1,30.21,NW,304,7.0,9.0,70,0.00,,OVC070,0.00,VWS V14.01,2013-01-17 17:36:00,
2013-01-17 12:41:00,15.1,7.4,30.21,NW,320,6.0,7.0,71,0.00,,OVC070,0.00,VWS V14.01,2013-01-17 17:41:00,
2013-01-17 12:46:00,15.1,8.0,30.21,NW,321,10.0,10.0,73,0.00,,OVC070,0.00,VWS V14.01,2013-01-17 17:46:00,
2013-01-17 12:51:00,14.8,7.7,30.21,North,7,6.0,6.0,73,0.00,,OVC070,0.00,VWS V14.01,2013-01-17 17:51:00,
2013-01-17 12:56:00,15.2,8.7,30.21,WSW,252,6.0,7.0,75,0.00,,OVC070,0.00,VWS V14.01,2013-01-17 17:56:00,
2013-01-17 13:01:00,15.5,8.4,30.21,West,262,7.0,7.0,73,0.00,,OVC070,0.00,VWS V14.01,2013-01-17 18:01:00,
2013-01-17 13:06:00,15.2,7.2,30.20,WNW,300,5.0,11.0,70,0.00,,,0.00,VWS V14.01,2013-01-17 18:06:00,
2013-01-17 13:11:00,15.0,6.7,30.20,NW,323,6.0,7.0,69,0.00,,,0.00,VWS V14.01,2013-01-17 18:11:00,
2013-01-17 13:16:00,15.0,5.7,30.20,West,269,11.0,11.0,66,0.00,,,0.00,VWS V14.01,2013-01-17 18:16:00,
2013-01-17 13:21:00,15.9,7.2,30.20,NW,314,3.0,6.0,68,0.00,,,0.00,VWS V14.01,2013-01-17 18:21:00,
2013-01-17 13:26:00,15.4,6.7,30.20,NNW,327,11.0,11.0,68,0.00,,,0.00,VWS V14.01,2013-01-17 18:26:00,
2013-01-17 13:32:00,14.6,7.5,30.20,WNW,300,13.0,13.0,73,0.00,,,0.00,VWS V14.01,2013-01-17 18:32:00,
2013-01-17 13:37:00,14.4,7.3,30.20,WNW,295,8.0,8.0,73,0.00,,,0.00,VWS V14.01,2013-01-17 18:37:00,
2013-01-17 13:42:00,14.3,6.6,30.19,NW,321,8.0,14.0,71,0.00,,,0.00,VWS V14.01,2013-01-17 18:42:00,
2013-01-17 13:47:00,14.4,6.4,30.19,NW,318,10.0,14.0,70,0.00,,,0.00,VWS V14.01,2013-01-17 18:47:00,
2013-01-17 13:52:00,14.8,5.8,30.19,NW,319,6.0,14.0,67,0.00,,,0.00,VWS V14.01,2013-01-17 18:52:00,
2013-01-17 13:57:00,14.7,5.8,30.19,NW,306,9.0,11.0,67,0.00,,,0.00,VWS V14.01,2013-01-17 18:57:00,
2013-01-17 14:02:00,14.4,6.1,30.19,WNW,286,5.0,5.0,69,0.00,,OVC070,0.00,VWS V14.01,2013-01-17 19:02:00,
2013-01-17 14:07:00,14.5,6.5,30.19,NNW,329,4.0,6.0,70,0.00,,OVC070,0.00,VWS V14.01,2013-01-17 19:07:00,
2013-01-17 14:12:00,14.5,6.5,30.19,North,352,4.0,6.0,70,0.00,,OVC070,0.00,VWS V14.01,2013-01-17 19:12:00,
2013-01-17 14:17:00,14.5,5.6,30.19,NW,304,5.0,7.0,67,0.00,,OVC070,0.00,VWS V14.01,2013-01-17 19:17:00,
2013-01-17 14:22:00,14.6,4.7,30.19,West,268,8.0,14.0,64,0.00,,OVC070,0.00,VWS V14.01,2013-01-17 19:22:00,
2013-01-17 14:27:00,14.5,5.6,30.19,NW,311,4.0,7.0,67,0.00,,OVC070,0.00,VWS V14.01,2013-01-17 19:27:00,
2013-01-17 14:32:00,14.4,6.1,30.19,WNW,283,6.0,9.0,69,0.00,,OVC070,0.00,VWS V14.01,2013-01-17 19:32:00,
2013-01-17 14:37:00,14.3,5.7,30.19,WNW,302,4.0,7.0,68,0.00,,OVC070,0.00,VWS V14.01,2013-01-17 19:37:00,
2013-01-17 14:42:00,14.4,4.8,30.19,NNW,327,14.0,14.0,65,0.00,,OVC070,0.00,VWS V14.01,2013-01-17 19:42:00,
2013-01-17 14:47:00,14.5,4.6,30.19,West,281,14.0,14.0,64,0.00,,OVC070,0.00,VWS V14.01,2013-01-17 19:47:00,
2013-01-17 14:52:00,14.7,3.7,30.19,WNW,294,9.0,12.0,61,0.00,,OVC070,0.00,VWS V14.01,2013-01-17 19:52:00,
2013-01-17 14:57:00,14.6,3.6,30.19,NNW,342,9.0,12.0,61,0.00,,OVC070,0.00,VWS V14.01,2013-01-17 19:57:00,
2013-01-17 15:02:00,14.5,4.6,30.19,West,265,6.0,8.0,64,0.00,,,0.00,VWS V14.01,2013-01-17 20:02:00,
2013-01-17 15:07:00,14.4,4.8,30.20,NNW,335,6.0,16.0,65,0.00,,,0.00,VWS V14.01,2013-01-17 20:07:00,
2013-01-17 15:12:00,14.1,4.8,30.19,NW,321,6.0,11.0,66,0.00,,,0.00,VWS V14.01,2013-01-17 20:12:00,
2013-01-17 15:17:00,14.1,4.5,30.19,West,277,4.0,8.0,65,0.00,,,0.00,VWS V14.01,2013-01-17 20:17:00,
2013-01-17 15:22:00,14.3,4.7,30.19,WNW,294,2.0,6.0,65,0.00,,,0.00,VWS V14.01,2013-01-17 20:22:00,
2013-01-17 15:27:00,14.5,4.2,30.19,West,278,2.0,5.0,63,0.00,,,0.00,VWS V14.01,2013-01-17 20:27:00,
2013-01-17 15:32:00,14.4,4.1,30.19,WNW,286,6.0,12.0,63,0.00,,,0.00,VWS V14.01,2013-01-17 20:32:00,
2013-01-17 15:37:00,14.4,3.8,30.19,North,349,10.0,10.0,62,0.00,,,0.00,VWS V14.01,2013-01-17 20:37:00,
2013-01-17 15:42:00,14.4,4.1,30.20,NW,313,11.0,11.0,63,0.00,,,0.00,VWS V14.01,2013-01-17 20:42:00,
2013-01-17 15:47:00,14.2,3.9,30.20,WNW,294,7.0,11.0,63,0.00,,,0.00,VWS V14.01,2013-01-17 20:47:00,
2013-01-17 15:52:00,14.1,3.8,30.20,NW,325,5.0,9.0,63,0.00,,,0.00,VWS V14.01,2013-01-17 20:52:00,
2013-01-17 15:57:00,14.1,3.5,30.20,West,277,8.0,9.0,62,0.00,,,0.00,VWS V14.01,2013-01-17 20:57:00,
2013-01-17 16:02:00,14.1,3.8,30.20,NW,325,3.0,8.0,63,0.00,,OVC049,0.00,VWS V14.01,2013-01-17 21:02:00,
2013-01-17 16:07:00,13.9,4.3,30.20,West,281,7.0,12.0,65,0.00,,OVC049,0.00,VWS V14.01,2013-01-17 21:07:00,
2013-01-17 16:12:00,14.0,4.1,30.20,NW,313,10.0,10.0,64,0.00,,OVC049,0.00,VWS V14.01,2013-01-17 21:12:00,
2013-01-17 16:17:00,14.1,3.1,30.21,NW,307,6.0,12.0,61,0.00,,OVC049,0.00,VWS V14.01,2013-01-17 21:17:00,
2013-01-17 16:22:00,14.1,3.5,30.21,WNW,296,5.0,8.0,62,0.00,,OVC049,0.00,VWS V14.01,2013-01-17 21:22:00,
2013-01-17 16:27:00,14.0,3.0,30.21,NW,317,8.0,13.0,61,0.00,,OVC049,0.00,VWS V14.01,2013-01-17 21:27:00,
2013-01-17 16:32:00,14.0,3.0,30.22,NNW,331,3.0,7.0,61,0.00,,OVC049,0.00,VWS V14.01,2013-01-17 21:32:00,
2013-01-17 16:37:00,14.0,3.0,30.22,WNW,303,3.0,8.0,61,0.00,,OVC049,0.00,VWS V14.01,2013-01-17 21:37:00,
2013-01-17 16:42:00,13.9,3.0,30.21,NW,325,6.0,12.0,61,0.00,,OVC049,0.00,VWS V14.01,2013-01-17 21:42:00,
2013-01-17 16:47:00,13.9,3.3,30.22,NW,325,4.0,9.0,62,0.00,,OVC049,0.00,VWS V14.01,2013-01-17 21:47:00,
2013-01-17 16:53:00,13.9,3.3,30.22,NW,323,8.0,14.0,62,0.00,,OVC049,0.00,VWS V14.01,2013-01-17 21:53:00,
2013-01-17 16:57:00,13.9,2.6,30.22,North,351,8.0,8.0,60,0.00,,OVC049,0.00,VWS V14.01,2013-01-17 21:57:00,
2013-01-17 17:03:00,13.8,2.5,30.22,North,2,9.0,11.0,60,0.00,,,0.00,VWS V14.01,2013-01-17 22:03:00,
2013-01-17 17:08:00,13.7,2.0,30.22,NW,306,7.0,12.0,59,0.00,,,0.00,VWS V14.01,2013-01-17 22:08:00,
2013-01-17 17:13:00,13.7,2.0,30.22,NNW,348,5.0,5.0,59,0.00,,,0.00,VWS V14.01,2013-01-17 22:13:00,
2013-01-17 17:18:00,13.6,1.6,30.23,NW,326,5.0,5.0,58,0.00,,,0.00,VWS V14.01,2013-01-17 22:18:00,
2013-01-17 17:23:00,13.6,2.0,30.23,WNW,300,4.0,7.0,59,0.00,,,0.00,VWS V14.01,2013-01-17 22:23:00,
2013-01-17 17:28:00,13.7,2.4,30.23,NW,308,4.0,10.0,60,0.00,,,0.00,VWS V14.01,2013-01-17 22:28:00,
2013-01-17 17:33:00,13.7,1.3,30.23,NW,317,9.0,16.0,57,0.00,,,0.00,VWS V14.01,2013-01-17 22:33:00,
2013-01-17 17:38:00,13.7,0.9,30.23,NNW,335,7.0,14.0,56,0.00,,,0.00,VWS V14.01,2013-01-17 22:38:00,
2013-01-17 17:43:00,13.8,1.0,30.23,NNW,335,10.0,13.0,56,0.00,,,0.00,VWS V14.01,2013-01-17 22:43:00,
2013-01-17 17:48:00,13.7,0.2,30.24,NNW,343,7.0,13.0,54,0.00,,,0.00,VWS V14.01,2013-01-17 22:48:00,
2013-01-17 17:53:00,13.7,0.5,30.24,NW,319,6.0,15.0,55,0.00,,,0.00,VWS V14.01,2013-01-17 22:53:00,
2013-01-17 17:58:00,13.9,1.1,30.24,WNW,288,10.0,13.0,56,0.00,,,0.00,VWS V14.01,2013-01-17 22:58:00,
2013-01-17 18:03:00,13.8,0.2,30.24,NNW,333,7.0,14.0,54,0.00,,OVC048,0.00,VWS V14.01,2013-01-17 23:03:00,
2013-01-17 18:08:00,13.8,-0.2,30.24,NNW,329,15.0,18.0,53,0.00,,OVC048,0.00,VWS V14.01,2013-01-17 23:08:00,
2013-01-17 18:13:00,13.7,0.2,30.24,NNW,337,10.0,15.0,54,0.00,,OVC048,0.00,VWS V14.01,2013-01-17 23:13:00,
2013-01-17 18:18:00,13.8,0.6,30.24,NW,322,6.0,11.0,55,0.00,,OVC048,0.00,VWS V14.01,2013-01-17 23:18:00,
2013-01-17 18:23:00,13.7,1.3,30.25,West,264,9.0,16.0,57,0.00,,OVC048,0.00,VWS V14.01,2013-01-17 23:23:00,
2013-01-17 18:28:00,13.6,1.2,30.25,North,350,9.0,15.0,57,0.00,,OVC048,0.00,VWS V14.01,2013-01-17 23:28:00,
2013-01-17 18:33:00,13.5,0.7,30.26,NW,315,18.0,18.0,56,0.00,,OVC048,0.00,VWS V14.01,2013-01-17 23:33:00,
2013-01-17 18:38:00,13.5,1.1,30.25,North,357,7.0,12.0,57,0.00,,OVC048,0.00,VWS V14.01,2013-01-17 23:38:00,
2013-01-17 18:43:00,13.4,0.3,30.26,NW,315,11.0,19.0,55,0.00,,OVC048,0.00,VWS V14.01,2013-01-17 23:43:00,
2013-01-17 18:48:00,13.4,1.0,30.26,NNW,329,14.0,14.0,57,0.00,,OVC048,0.00,VWS V14.01,2013-01-17 23:48:00,
2013-01-17 18:53:00,13.5,0.7,30.26,WNW,292,6.0,12.0,56,0.00,,OVC048,0.00,VWS V14.01,2013-01-17 23:53:00,
2013-01-17 18:58:00,13.5,0.7,30.26,WNW,286,9.0,13.0,56,0.00,,OVC048,0.00,VWS V14.01,2013-01-17 23:58:00,
2013-01-17 19:03:00,13.5,1.5,30.27,SSW,204,7.0,12.0,58,0.00,,OVC055,0.00,VWS V14.01,2013-01-18 00:03:00,
2013-01-17 19:08:00,13.4,1.4,30.26,NW,311,10.0,13.0,58,0.00,,OVC055,0.00,VWS V14.01,2013-01-18 00:08:00,
2013-01-17 19:13:00,13.4,1.0,30.26,NNW,327,10.0,17.0,57,0.00,,OVC055,0.00,VWS V14.01,2013-01-18 00:13:00,
2013-01-17 19:18:00,13.4,1.0,30.27,NNW,335,9.0,14.0,57,0.00,,OVC055,0.00,VWS V14.01,2013-01-18 00:18:00,
2013-01-17 19:23:00,13.4,0.6,30.27,NNW,333,12.0,16.0,56,0.00,,OVC055,0.00,VWS V14.01,2013-01-18 00:23:00,
2013-01-17 19:28:00,13.4,1.0,30.27,NNW,348,9.0,15.0,57,0.00,,OVC055,0.00,VWS V14.01,2013-01-18 00:28:00,
2013-01-17 19:33:00,13.4,1.0,30.27,NNW,333,4.0,7.0,57,0.00,,OVC055,0.00,VWS V14.01,2013-01-18 00:33:00,
2013-01-17 19:38:00,13.4,1.4,30.27,NNW,337,5.0,11.0,58,0.00,,OVC055,0.00,VWS V14.01,2013-01-18 00:38:00,
2013-01-17 19:43:00,13.4,1.0,30.28,North,353,13.0,13.0,57,0.00,,OVC055,0.00,VWS V14.01,2013-01-18 00:43:00,
2013-01-17 19:48:00,13.4,1.4,30.28,NNW,336,8.0,12.0,58,0.00,,OVC055,0.00,VWS V14.01,2013-01-18 00:48:00,
2013-01-17 19:53:00,13.4,1.0,30.28,NW,311,15.0,19.0,57,0.00,,OVC055,0.00,VWS V14.01,2013-01-18 00:53:00,
2013-01-17 19:58:00,13.3,0.9,30.28,NW,308,8.0,15.0,57,0.00,,OVC055,0.00,VWS V14.01,2013-01-18 00:58:00,
2013-01-17 20:03:00,13.2,0.8,30.28,NW,323,11.0,12.0,57,0.00,,OVC050,0.00,VWS V14.01,2013-01-18 01:03:00,
2013-01-17 20:08:00,13.1,0.7,30.29,NW,323,15.0,15.0,57,0.00,,OVC050,0.00,VWS V14.01,2013-01-18 01:08:00,
2013-01-17 20:13:00,13.1,1.1,30.29,NNW,339,8.0,16.0,58,0.00,,OVC050,0.00,VWS V14.01,2013-01-18 01:13:00,
2013-01-17 20:18:00,13.1,1.1,30.29,NW,318,11.0,14.0,58,0.00,,OVC050,0.00,VWS V14.01,2013-01-18 01:18:00,
2013-01-17 20:23:00,13.1,1.1,30.28,North,352,9.0,13.0,58,0.00,,OVC050,0.00,VWS V14.01,2013-01-18 01:23:00,
2013-01-17 20:28:00,13.0,1.0,30.29,WNW,300,12.0,21.0,58,0.00,,OVC050,0.00,VWS V14.01,2013-01-18 01:28:00,
2013-01-17 20:33:00,12.9,0.6,30.29,North,351,20.0,20.0,57,0.00,,OVC050,0.00,VWS V14.01,2013-01-18 01:33:00,
2013-01-17 20:38:00,13.0,1.0,30.29,NW,313,12.0,15.0,58,0.00,,OVC050,0.00,VWS V14.01,2013-01-18 01:38:00,
2013-01-17 20:43:00,13.0,1.7,30.29,WSW,254,10.0,10.0,60,0.00,,OVC050,0.00,VWS V14.01,2013-01-18 01:43:00,
2013-01-17 20:48:00,12.9,1.3,30.29,NW,310,9.0,13.0,59,0.00,,OVC050,0.00,VWS V14.01,2013-01-18 01:48:00,
2013-01-17 20:53:00,12.8,1.2,30.29,WNW,298,12.0,15.0,59,0.00,,OVC050,0.00,VWS V14.01,2013-01-18 01:53:00,
2013-01-17 20:58:00,12.8,1.2,30.29,WNW,294,10.0,13.0,59,0.00,,OVC050,0.00,VWS V14.01,2013-01-18 01:58:00,
2013-01-17 21:03:00,12.7,1.1,30.29,NNW,329,6.0,14.0,59,0.00,,BKN043,0.00,VWS V14.01,2013-01-18 02:03:00,
2013-01-17 21:09:00,12.6,1.4,30.30,NNW,344,11.0,18.0,60,0.00,,BKN043,0.00,VWS V14.01,2013-01-18 02:09:00,
2013-01-17 21:14:00,12.7,1.8,30.30,WNW,294,6.0,16.0,61,0.00,,BKN043,0.00,VWS V14.01,2013-01-18 02:14:00,
2013-01-17 21:19:00,12.7,1.8,30.30,NW,304,7.0,11.0,61,0.00,,BKN043,0.00,VWS V14.01,2013-01-18 02:19:00,
2013-01-17 21:23:00,12.7,1.8,30.30,WNW,293,12.0,13.0,61,0.00,,BKN043,0.00,VWS V14.01,2013-01-18 02:23:00,
2013-01-17 21:29:00,12.6,1.7,30.30,NNW,331,8.0,10.0,61,0.00,,BKN043,0.00,VWS V14.01,2013-01-18 02:29:00,
2013-01-17 21:34:00,12.6,1.7,30.30,NNW,337,9.0,13.0,61,0.00,,BKN043,0.00,VWS V14.01,2013-01-18 02:34:00,
2013-01-17 21:39:00,12.6,1.7,30.31,WNW,291,7.0,11.0,61,0.00,,BKN043,0.00,VWS V14.01,2013-01-18 02:39:00,
2013-01-17 21:44:00,12.5,2.0,30.31,West,275,12.0,15.0,62,0.00,,BKN043,0.00,VWS V14.01,2013-01-18 02:44:00,
2013-01-17 21:49:00,12.5,2.0,30.30,NNW,336,7.0,12.0,62,0.00,,BKN043,0.00,VWS V14.01,2013-01-18 02:49:00,
2013-01-17 21:54:00,12.6,2.4,30.31,NNW,327,6.0,11.0,63,0.00,,BKN043,0.00,VWS V14.01,2013-01-18 02:54:00,
2013-01-17 21:59:00,12.6,2.1,30.31,NW,308,3.0,5.0,62,0.00,,BKN043,0.00,VWS V14.01,2013-01-18 02:59:00,
2013-01-17 22:04:00,12.7,2.5,30.31,North,357,5.0,12.0,63,0.00,,SCT049,0.00,VWS V14.01,2013-01-18 03:04:00,
2013-01-17 22:09:00,12.7,2.8,30.31,North,352,8.0,15.0,64,0.00,,SCT049,0.00,VWS V14.01,2013-01-18 03:09:00,
2013-01-17 22:14:00,12.7,2.8,30.31,WNW,292,8.0,8.0,64,0.00,,SCT049,0.00,VWS V14.01,2013-01-18 03:14:00,
2013-01-17 22:19:00,12.7,2.8,30.30,NW,321,7.0,11.0,64,0.00,,SCT049,0.00,VWS V14.01,2013-01-18 03:19:00,
2013-01-17 22:24:00,12.6,2.8,30.30,NW,315,3.0,10.0,64,0.00,,SCT049,0.00,VWS V14.01,2013-01-18 03:24:00,
2013-01-17 22:29:00,12.7,2.8,30.30,WNW,300,14.0,16.0,64,0.00,,SCT049,0.00,VWS V14.01,2013-01-18 03:29:00,
2013-01-17 22:34:00,12.7,3.2,30.30,NW,313,10.0,10.0,65,0.00,,SCT049,0.00,VWS V14.01,2013-01-18 03:34:00,
2013-01-17 22:39:00,12.7,2.8,30.30,NNW,331,8.0,19.0,64,0.00,,SCT049,0.00,VWS V14.01,2013-01-18 03:39:00,
2013-01-17 22:44:00,12.7,2.5,30.30,NNW,330,8.0,9.0,63,0.00,,SCT049,0.00,VWS V14.01,2013-01-18 03:44:00,
2013-01-17 22:49:00,12.8,2.6,30.30,West,279,7.0,10.0,63,0.00,,SCT049,0.00,VWS V14.01,2013-01-18 03:49:00,
2013-01-17 22:54:00,12.9,2.7,30.30,WNW,295,5.0,9.0,63,0.00,,SCT049,0.00,VWS V14.01,2013-01-18 03:54:00,
2013-01-17 22:59:00,12.9,2.7,30.30,North,357,5.0,9.0,63,0.00,,SCT049,0.00,VWS V14.01,2013-01-18 03:59:00,
2013-01-17 23:04:00,12.9,2.3,30.30,NW,308,9.0,10.0,62,0.00,,BKN045,0.00,VWS V14.01,2013-01-18 04:04:00,
2013-01-17 23:09:00,13.0,2.8,30.30,NNW,338,6.0,6.0,63,0.00,,BKN045,0.00,VWS V14.01,2013-01-18 04:09:00,
2013-01-17 23:14:00,13.0,2.8,30.30,NNW,331,3.0,7.0,63,0.00,,BKN045,0.00,VWS V14.01,2013-01-18 04:14:00,
2013-01-17 23:19:00,13.0,2.8,30.30,NNW,331,12.0,12.0,63,0.00,,BKN045,0.00,VWS V14.01,2013-01-18 04:19:00,
2013-01-17 23:24:00,13.0,2.8,30.30,NNW,344,14.0,14.0,63,0.00,,BKN045,0.00,VWS V14.01,2013-01-18 04:24:00,
2013-01-17 23:29:00,13.0,2.8,30.30,West,277,14.0,14.0,63,0.00,,BKN045,0.00,VWS V14.01,2013-01-18 04:29:00,
2013-01-17 23:34:00,13.0,3.1,30.31,NNW,338,9.0,10.0,64,0.00,,BKN045,0.00,VWS V14.01,2013-01-18 04:34:00,
2013-01-17 23:39:00,13.0,3.1,30.31,NW,306,8.0,12.0,64,0.00,,BKN045,0.00,VWS V14.01,2013-01-18 04:39:00,
2013-01-17 23:44:00,13.0,2.8,30.31,NNW,327,10.0,15.0,63,0.00,,BKN045,0.00,VWS V14.01,2013-01-18 04:44:00,
2013-01-17 23:49:00,13.0,3.1,30.31,NNW,330,14.0,14.0,64,0.00,,BKN045,0.00,VWS V14.01,2013-01-18 04:49:00,
2013-01-17 23:54:00,12.9,3.0,30.31,NW,323,5.0,15.0,64,0.00,,BKN045,0.00,VWS V14.01,2013-01-18 04:54:00,
2013-01-17 23:59:00,12.9,3.0,30.31,NW,304,3.0,5.0,64,0.00,,BKN045,0.00,VWS V14.01,2013-01-18 04:59:00,